Time;durP1;ratioP1;P1;durP2;ratioP2;P2;SDS_P1;SDS_P2;PMS_P1;PMS_P2;Temp;Humidity;BMP_temperature;BMP_pressure;BME280_temperature;BME280_humidity;BME280_pressure;Samples;Min_cycle;Max_cycle;Signal;HPM_P1;HPM_P2
2021/10/03 00:00:33;;;;;;;28.07;14.58;;;;;;;2.27;87.75;100640.95;1731735;81;21052;-77
2021/10/03 00:03:02;;;;;;;29.40;14.45;;;;;;;2.24;87.82;100629.22;1728368;81;21121;-77
2021/10/03 00:05:31;;;;;;;29.42;15.68;;;;;;;2.22;87.93;100636.23;1701059;82;21109;-76
2021/10/03 00:08:05;;;;;;;32.67;14.70;;;;;;;2.21;88.02;100641.35;1696278;83;21081;-76
2021/10/03 00:10:33;;;;;;;26.30;13.83;;;;;;;2.18;88.18;100636.41;1655051;84;21088;-76
2021/10/03 00:13:04;;;;;;;36.48;14.03;;;;;;;2.16;88.13;100636.34;1676099;84;21015;-76
2021/10/03 00:15:34;;;;;;;27.82;13.72;;;;;;;2.13;88.23;100633.56;1685514;83;21088;-76
2021/10/03 00:18:07;;;;;;;29.10;13.68;;;;;;;2.11;88.23;100643.81;1700463;83;21148;-76
2021/10/03 00:20:36;;;;;;;25.82;13.03;;;;;;;2.09;88.31;100640.52;1672541;84;21039;-79
2021/10/03 00:23:03;;;;;;;26.37;14.33;;;;;;;2.07;88.41;100639.09;1685781;83;20963;-75
2021/10/03 00:25:36;;;;;;;25.50;14.40;;;;;;;2.04;88.50;100641.73;1676665;83;20941;-77
2021/10/03 00:28:08;;;;;;;27.87;13.55;;;;;;;2.02;88.54;100638.97;1686804;83;21471;-77
2021/10/03 00:30:40;;;;;;;28.10;14.30;;;;;;;2.01;88.78;100642.73;1700112;83;21175;-77
2021/10/03 00:33:07;;;;;;;22.67;13.13;;;;;;;2.01;88.84;100635.97;1683800;84;21455;-76
2021/10/03 00:35:38;;;;;;;28.50;13.03;;;;;;;2.00;88.96;100639.20;1685753;84;21508;-75
2021/10/03 00:38:10;;;;;;;26.52;13.32;;;;;;;1.98;88.87;100647.56;1684112;84;20974;-76
2021/10/03 00:40:41;;;;;;;27.07;13.20;;;;;;;1.98;88.97;100642.14;1656772;85;20957;-76
2021/10/03 00:43:11;;;;;;;24.15;12.75;;;;;;;1.96;89.06;100639.38;1680125;84;21101;-75
2021/10/03 00:45:43;;;;;;;25.48;13.15;;;;;;;1.95;89.09;100645.84;1708439;82;21592;-75
2021/10/03 00:48:17;;;;;;;25.60;13.03;;;;;;;1.94;89.10;100645.02;1711502;82;21023;-76
2021/10/03 00:50:51;;;;;;;23.20;12.78;;;;;;;1.93;89.12;100643.89;1741833;81;20983;-74
2021/10/03 00:53:21;;;;;;;26.50;13.50;;;;;;;1.92;89.26;100637.66;1701628;83;20960;-75
2021/10/03 00:55:52;;;;;;;24.52;12.82;;;;;;;1.92;89.34;100643.07;1670595;85;20945;-76
2021/10/03 00:58:27;;;;;;;25.25;12.05;;;;;;;1.90;89.47;100633.53;1701011;82;21026;-75
2021/10/03 01:00:58;;;;;;;25.45;13.05;;;;;;;1.89;89.49;100634.59;1735809;81;20904;-75
2021/10/03 01:03:31;;;;;;;27.62;12.60;;;;;;;1.89;89.64;100634.59;1737579;81;21430;-75
2021/10/03 01:05:57;;;;;;;25.88;13.05;;;;;;;1.87;89.63;100634.81;1729546;81;20943;-76
2021/10/03 01:08:28;;;;;;;25.55;12.68;;;;;;;1.85;89.70;100630.69;1734884;81;21978;-75
2021/10/03 01:11:02;;;;;;;22.67;12.23;;;;;;;1.84;89.84;100628.51;1737419;81;20916;-75
2021/10/03 01:13:33;;;;;;;23.25;12.93;;;;;;;1.84;89.94;100631.75;1728346;81;20979;-76
2021/10/03 01:16:01;;;;;;;23.95;12.80;;;;;;;1.84;90.14;100637.98;1729154;81;21013;-76
2021/10/03 01:18:31;;;;;;;25.50;12.43;;;;;;;1.83;90.17;100632.80;1730348;81;20917;-76
2021/10/03 01:21:10;;;;;;;23.10;12.07;;;;;;;1.81;90.21;100634.39;1734706;81;21166;-76
2021/10/03 01:23:44;;;;;;;22.93;12.55;;;;;;;1.81;90.32;100632.21;1701456;81;21004;-76
2021/10/03 01:26:14;;;;;;;26.65;12.30;;;;;;;1.81;90.41;100632.21;1736729;81;21048;-76
2021/10/03 01:28:46;;;;;;;26.07;13.20;;;;;;;1.80;90.48;100631.38;1703808;82;20916;-80
2021/10/03 01:31:12;;;;;;;22.25;12.55;;;;;;;1.79;90.43;100633.80;1704475;83;21082;-77
2021/10/03 01:33:43;;;;;;;24.30;12.88;;;;;;;1.78;90.50;100632.14;1681177;83;21445;-76
2021/10/03 01:36:11;;;;;;;28.90;12.33;;;;;;;1.77;90.56;100626.44;1656817;84;21697;-76
2021/10/03 01:38:41;;;;;;;21.30;11.43;;;;;;;1.75;90.54;100636.66;1703739;83;21013;-75
2021/10/03 01:41:17;;;;;;;26.48;14.33;;;;;;;1.73;90.51;100637.45;1681546;84;20932;-77
2021/10/03 01:43:50;;;;;;;24.80;12.50;;;;;;;1.72;90.63;100630.92;1737333;81;20924;-76
2021/10/03 01:46:17;;;;;;;25.32;12.58;;;;;;;1.71;90.76;100630.09;1733991;81;21968;-76
2021/10/03 01:48:49;;;;;;;22.58;13.58;;;;;;;1.71;90.88;100631.98;1739837;82;20916;-76
2021/10/03 01:51:21;;;;;;;21.07;11.60;;;;;;;1.71;90.98;100632.80;1711542;82;20924;-77
2021/10/03 01:53:58;;;;;;;25.75;12.40;;;;;;;1.69;90.82;100629.50;1733867;81;20957;-77
2021/10/03 01:56:27;;;;;;;25.65;12.98;;;;;;;1.67;90.75;100632.14;1738711;81;21038;-78
2021/10/03 01:59:05;;;;;;;23.12;12.40;;;;;;;1.64;90.84;100634.25;1728293;81;21150;-78
2021/10/03 02:01:43;;;;;;;25.55;12.70;;;;;;;1.62;90.79;100630.13;1704187;81;21089;-77
2021/10/03 02:04:25;;;;;;;25.20;12.80;;;;;;;1.60;90.87;100632.23;1714875;82;20946;-77
2021/10/03 02:06:57;;;;;;;28.95;13.10;;;;;;;1.58;90.90;100628.94;1729550;81;21139;-77
2021/10/03 02:09:30;;;;;;;22.90;12.73;;;;;;;1.56;90.84;100637.81;1736253;82;20984;-77
2021/10/03 02:12:08;;;;;;;31.15;13.30;;;;;;;1.52;90.83;100632.03;1730924;81;20835;-76
2021/10/03 02:14:40;;;;;;;28.47;12.82;;;;;;;1.49;90.77;100634.38;1736544;81;20946;-76
2021/10/03 02:17:09;;;;;;;23.40;12.95;;;;;;;1.47;90.80;100637.83;1739804;81;21475;-74
2021/10/03 02:19:41;;;;;;;27.05;12.90;;;;;;;1.43;90.78;100639.34;1697303;83;20891;-76
2021/10/03 02:22:15;;;;;;;19.52;11.60;;;;;;;1.41;90.92;100632.81;1656312;84;21111;-77
2021/10/03 02:24:45;;;;;;;23.30;12.47;;;;;;;1.40;90.99;100641.16;1680671;84;21180;-76
2021/10/03 02:27:18;;;;;;;31.15;12.55;;;;;;;1.40;91.03;100633.03;1660993;84;20970;-76
2021/10/03 02:29:49;;;;;;;22.70;12.30;;;;;;;1.39;91.13;100634.09;1722475;82;25188;-77
2021/10/03 02:32:19;;;;;;;25.60;12.75;;;;;;;1.37;91.02;100637.03;1686537;84;20945;-78
2021/10/03 02:34:55;;;;;;;23.92;13.53;;;;;;;1.36;91.08;100635.38;1693132;84;20900;-76
2021/10/03 02:37:20;;;;;;;26.77;14.05;;;;;;;1.36;91.25;100638.61;1685280;85;21106;-76
2021/10/03 02:39:57;;;;;;;27.35;13.48;;;;;;;1.36;91.44;100635.91;1685995;84;21478;-76
2021/10/03 02:42:25;;;;;;;24.52;12.82;;;;;;;1.37;91.48;100639.73;1686167;84;20945;-77
2021/10/03 02:44:56;;;;;;;26.02;13.18;;;;;;;1.38;91.44;100635.14;1686370;85;21432;-77
2021/10/03 02:47:26;;;;;;;27.93;12.73;;;;;;;1.37;91.45;100632.14;1685815;85;21032;-77
2021/10/03 02:49:58;;;;;;;23.18;12.40;;;;;;;1.37;91.77;100634.84;1686174;85;21185;-78
2021/10/03 02:52:30;;;;;;;23.85;12.65;;;;;;;1.38;91.94;100637.85;1686332;84;20932;-78
2021/10/03 02:55:09;;;;;;;28.25;13.32;;;;;;;1.40;92.12;100640.63;1686073;85;20944;-78
2021/10/03 02:57:43;;;;;;;24.57;12.73;;;;;;;1.43;92.31;100636.11;1686075;85;20949;-79
2021/10/03 03:00:20;;;;;;;23.25;13.22;;;;;;;1.48;92.46;100634.07;1662632;85;21563;-78
2021/10/03 03:02:46;;;;;;;24.18;12.47;;;;;;;1.50;92.50;100626.02;1689766;84;21100;-79
2021/10/03 03:05:22;;;;;;;29.55;13.78;;;;;;;1.53;92.51;100632.33;1710871;82;20858;-79
2021/10/03 03:07:50;;;;;;;31.10;14.20;;;;;;;1.56;92.44;100631.05;1713006;83;20988;-79
2021/10/03 03:10:28;;;;;;;24.47;13.75;;;;;;;1.58;92.53;100629.76;1711664;84;20932;-80
2021/10/03 03:13:06;;;;;;;28.30;15.28;;;;;;;1.59;92.59;100631.41;1712054;84;20857;-80
2021/10/03 03:15:35;;;;;;;29.48;14.90;;;;;;;1.63;92.81;100626.36;1693285;84;21585;-80
2021/10/03 03:18:09;;;;;;;32.03;15.03;;;;;;;1.64;92.71;100630.19;1658910;85;20912;-79
2021/10/03 03:20:40;;;;;;;26.02;14.23;;;;;;;1.67;92.74;100641.09;1649747;85;20979;-80
2021/10/03 03:23:09;;;;;;;26.07;15.05;;;;;;;1.68;92.64;100640.03;1693155;83;20983;-79
2021/10/03 03:25:41;;;;;;;27.62;14.10;;;;;;;1.68;92.52;100644.09;1673590;84;21040;-79
2021/10/03 03:28:10;;;;;;;28.47;15.55;;;;;;;1.67;92.33;100644.32;1651384;85;21003;-78
2021/10/03 03:30:40;;;;;;;25.48;14.93;;;;;;;1.64;92.22;100644.25;1642983;85;21034;-78
2021/10/03 03:33:14;;;;;;;23.50;13.72;;;;;;;1.62;92.24;100641.78;1672630;84;21057;-78
2021/10/03 03:35:46;;;;;;;27.48;14.50;;;;;;;1.62;92.37;100642.30;1641673;86;21559;-78
2021/10/03 03:38:18;;;;;;;26.37;13.83;;;;;;;1.63;92.44;100646.66;1701072;83;20986;-75
2021/10/03 03:40:45;;;;;;;30.37;12.90;;;;;;;1.63;92.37;100648.84;1708936;83;21492;-75
2021/10/03 03:43:15;;;;;;;24.18;13.83;;;;;;;1.65;92.58;100650.79;1682801;84;20906;-77
2021/10/03 03:45:56;;;;;;;27.40;13.58;;;;;;;1.68;92.75;100652.21;1677180;84;21082;-77
2021/10/03 03:48:26;;;;;;;21.77;12.82;;;;;;;1.69;92.57;100653.03;1719430;82;20994;-78
2021/10/03 03:51:03;;;;;;;26.90;14.75;;;;;;;1.68;92.50;100653.56;1729711;81;21035;-78
2021/10/03 03:53:36;;;;;;;24.72;14.10;;;;;;;1.68;92.54;100652.73;1733276;81;21173;-78
2021/10/03 03:56:03;;;;;;;;;;;;;;;1.69;92.59;100648.45;1733209;82;20985;-79
2021/10/03 03:58:33;;;;;;;27.50;12.78;;;;;;;1.70;92.52;100650.63;1733574;81;20127;-77
2021/10/03 04:01:10;;;;;;;25.85;12.90;;;;;;;1.68;92.40;100660.33;1721807;82;21488;-77
2021/10/03 04:03:37;;;;;;;21.48;13.05;;;;;;;1.66;92.33;100657.03;1733587;81;20930;-77
2021/10/03 04:06:07;;;;;;;27.87;13.65;;;;;;;1.68;92.58;100653.56;1735585;82;21142;-75
2021/10/03 04:08:35;;;;;;;31.02;13.48;;;;;;;1.73;92.97;100655.05;1729177;81;21005;-75
2021/10/03 04:11:07;;;;;;;25.50;12.30;;;;;;;1.76;92.81;100654.56;1731094;81;21068;-85
2021/10/03 04:13:37;;;;;;;25.95;11.57;;;;;;;1.78;92.56;100664.63;1672809;83;20964;-79
2021/10/03 04:16:10;;;;;;;30.82;13.43;;;;;;;1.78;92.49;100663.28;1708307;83;20878;-78
2021/10/03 04:18:40;;;;;;;23.12;13.05;;;;;;;1.76;92.32;100663.21;1691788;82;21132;-79
2021/10/03 04:21:10;;;;;;;25.92;12.78;;;;;;;1.74;92.25;100666.67;1695277;84;20942;-79
2021/10/03 04:23:45;;;;;;;24.07;12.15;;;;;;;1.72;92.24;100662.05;1665520;83;20957;-81
2021/10/03 04:26:18;;;;;;;21.77;11.20;;;;;;;1.70;92.26;100660.10;1711850;83;20985;-81
2021/10/03 04:28:51;;;;;;;25.85;13.00;;;;;;;1.69;92.58;100665.22;1703329;83;21072;-77
2021/10/03 04:31:22;;;;;;;23.57;12.95;;;;;;;1.71;92.93;100665.81;1702194;83;21167;-77
2021/10/03 04:33:50;;;;;;;27.95;13.20;;;;;;;1.74;93.21;100666.15;1722692;82;20941;-77
2021/10/03 04:36:19;;;;;;;22.98;12.25;;;;;;;1.79;93.43;100666.81;1724017;81;21021;-79
2021/10/03 04:38:50;;;;;;;29.23;12.55;;;;;;;1.84;93.49;100669.66;1731139;81;20885;-79
2021/10/03 04:41:20;;;;;;;23.25;12.30;;;;;;;1.90;93.62;100675.50;1728516;81;20942;-79
2021/10/03 04:43:52;;;;;;;21.90;12.10;;;;;;;1.97;93.75;100670.81;1705062;83;21172;-79
2021/10/03 04:46:22;;;;;;;24.07;13.00;;;;;;;2.06;93.84;100676.72;1673022;85;20892;-76
2021/10/03 04:48:50;;;;;;;24.85;13.03;;;;;;;2.15;93.98;100676.68;1704163;83;20946;-76
2021/10/03 04:51:21;;;;;;;26.17;13.62;;;;;;;2.24;94.54;100679.34;1666665;85;20979;-76
2021/10/03 04:54:09;;;;;;;25.57;13.35;;;;;;;2.36;94.85;100678.80;1651990;85;20984;-81
2021/10/03 04:56:20;;;;;;;29.98;13.58;;;;;;;2.48;95.00;100682.88;1676999;84;21210;-84
2021/10/03 04:58:54;;;;;;;26.70;13.72;;;;;;;2.62;95.38;100677.00;1655650;85;21119;-82
2021/10/03 05:01:24;;;;;;;;;;;;;;;2.77;95.46;100683.30;1629163;85;20965;-81
2021/10/03 05:03:53;;;;;;;25.77;13.98;;;;;;;2.90;95.29;100680.31;1672136;84;20434;-82
2021/10/03 05:08:59;;;;;;;26.07;12.68;;;;;;;3.20;95.69;100670.65;1632540;85;21855;-81
2021/10/03 05:11:34;;;;;;;24.90;13.98;;;;;;;3.38;95.71;100671.55;1675930;84;20940;-78
2021/10/03 05:14:06;;;;;;;28.62;14.55;;;;;;;3.56;95.49;100674.05;1649296;85;21039;-77
2021/10/03 05:16:34;;;;;;;27.98;15.55;;;;;;;3.71;95.04;100678.95;1679941;84;21134;-77
2021/10/03 05:19:11;;;;;;;30.45;14.78;;;;;;;3.84;94.76;100677.30;1649013;86;21019;-77
2021/10/03 05:21:41;;;;;;;26.48;15.23;;;;;;;3.97;94.47;100670.20;1633759;86;21179;-77
2021/10/03 05:24:12;;;;;;;33.53;16.70;;;;;;;4.13;94.00;100668.55;1649323;84;21011;-78
2021/10/03 05:26:46;;;;;;;25.32;14.55;;;;;;;4.25;93.54;100669.30;1711527;83;21430;-78
2021/10/03 05:29:15;;;;;;;28.50;14.10;;;;;;;4.54;92.24;100661.34;1713852;83;20950;-78
2021/10/03 05:31:48;;;;;;;28.57;15.25;;;;;;;4.54;92.24;100661.34;1709537;82;21028;-77
2021/10/03 05:34:20;;;;;;;24.00;13.08;;;;;;;4.69;92.17;100659.36;1695861;83;21556;-77
2021/10/03 05:36:55;;;;;;;26.12;14.25;;;;;;;4.80;91.89;100657.07;1684404;83;21462;-77
2021/10/03 05:39:27;;;;;;;23.77;13.32;;;;;;;4.91;91.59;100667.56;1692237;83;21027;-79
2021/10/03 05:41:56;;;;;;;30.35;14.58;;;;;;;5.03;91.05;100668.81;1701583;83;21501;-79
2021/10/03 05:44:25;;;;;;;22.82;13.15;;;;;;;5.16;90.96;100677.43;1696061;83;21175;-79
2021/10/03 05:46:51;;;;;;;21.30;13.13;;;;;;;5.38;90.62;100681.49;1702055;83;22168;-80
2021/10/03 05:49:18;;;;;;;27.13;13.35;;;;;;;5.38;90.62;100681.49;1700968;83;20853;-79
2021/10/03 05:51:54;;;;;;;22.58;13.72;;;;;;;5.52;89.09;100670.50;1683164;84;20889;-79
2021/10/03 05:54:25;;;;;;;26.33;13.00;;;;;;;5.64;89.07;100676.63;1676823;83;21007;-79
2021/10/03 05:56:58;;;;;;;21.75;12.53;;;;;;;5.78;87.94;100683.02;1684562;83;21021;-79
2021/10/03 05:59:31;;;;;;;22.65;11.65;;;;;;;5.90;87.24;100679.62;1711474;81;21849;-78
2021/10/03 06:02:02;;;;;;;20.82;12.60;;;;;;;6.05;87.39;100683.88;1663544;83;20903;-79
2021/10/03 06:04:30;;;;;;;27.67;13.95;;;;;;;6.18;86.56;100680.72;1707137;82;20949;-79
2021/10/03 06:07:01;;;;;;;23.90;12.28;;;;;;;6.31;85.97;100684.92;1705835;83;20934;-80
2021/10/03 06:09:32;;;;;;;23.73;13.55;;;;;;;6.45;86.49;100679.28;1682238;83;21431;-81
2021/10/03 06:12:01;;;;;;;19.55;10.85;;;;;;;6.59;86.04;100685.94;1667852;84;21022;-82
2021/10/03 06:14:32;;;;;;;27.52;12.45;;;;;;;6.73;85.54;100686.31;1675947;85;20966;-81
2021/10/03 06:17:00;;;;;;;25.45;12.47;;;;;;;6.88;84.62;100690.52;1653495;84;21576;-78
2021/10/03 06:19:32;;;;;;;21.85;11.90;;;;;;;7.05;83.61;100687.58;1676456;84;21088;-80
2021/10/03 06:22:01;;;;;;;24.82;11.15;;;;;;;7.20;81.30;100686.30;1662512;83;20996;-79
2021/10/03 06:24:29;;;;;;;22.32;11.20;;;;;;;7.37;80.77;100688.02;1718580;81;21127;-79
2021/10/03 06:27:00;;;;;;;20.55;11.40;;;;;;;7.49;78.29;100681.78;1704641;83;20945;-79
2021/10/03 06:29:27;;;;;;;29.15;11.85;;;;;;;7.60;76.77;100686.17;1703249;83;21075;-75
2021/10/03 06:31:59;;;;;;;22.67;11.60;;;;;;;7.70;75.80;100687.56;1664749;84;22067;-73
2021/10/03 06:34:31;;;;;;;16.25;10.45;;;;;;;7.81;75.05;100687.87;1622997;85;21014;-72
2021/10/03 06:36:58;;;;;;;20.75;10.35;;;;;;;7.94;72.55;100689.27;1650606;84;21176;-71
2021/10/03 06:39:27;;;;;;;20.20;10.38;;;;;;;8.07;74.80;100685.19;1663649;84;20946;-72
2021/10/03 06:41:57;;;;;;;20.20;10.90;;;;;;;8.25;73.88;100686.01;1696386;82;21048;-72
2021/10/03 06:44:28;;;;;;;16.73;10.30;;;;;;;8.42;71.39;100690.70;1661776;84;20973;-72
2021/10/03 06:47:00;;;;;;;24.15;10.88;;;;;;;8.55;71.40;100686.05;1741422;81;21148;-69
2021/10/03 06:49:32;;;;;;;21.65;11.10;;;;;;;8.74;71.23;100693.12;1713893;82;20996;-74
2021/10/03 06:52:07;;;;;;;22.90;11.63;;;;;;;9.13;69.88;100685.11;1737466;81;21018;-77
2021/10/03 06:54:37;;;;;;;24.32;11.75;;;;;;;9.75;67.85;100688.40;1739915;80;20981;-79
2021/10/03 06:57:08;;;;;;;24.87;11.63;;;;;;;10.42;65.08;100690.95;1736383;81;20913;-72
2021/10/03 06:59:42;;;;;;;19.60;10.83;;;;;;;10.96;63.92;100689.36;1740029;80;20836;-73
2021/10/03 07:02:26;;;;;;;19.77;10.35;;;;;;;11.50;61.31;100693.12;1741533;81;21576;-74
2021/10/03 07:04:57;;;;;;;14.78;9.63;;;;;;;12.08;61.71;100686.02;1728830;81;20979;-73
2021/10/03 07:07:28;;;;;;;19.70;10.23;;;;;;;12.81;60.40;100683.94;1691156;83;21075;-73
2021/10/03 07:09:56;;;;;;;14.45;8.63;;;;;;;13.35;56.70;100681.55;1736782;81;20985;-71
2021/10/03 07:12:29;;;;;;;14.63;8.90;;;;;;;13.64;52.64;100684.00;1715063;81;21607;-72
2021/10/03 07:14:56;;;;;;;24.80;10.25;;;;;;;13.78;50.70;100684.80;1725373;81;21145;-72
2021/10/03 07:17:23;;;;;;;16.00;9.03;;;;;;;13.85;50.36;100683.25;1697160;83;20941;-82
2021/10/03 07:19:50;;;;;;;15.85;9.05;;;;;;;13.86;50.13;100682.09;1672251;85;21438;-84
2021/10/03 07:22:17;;;;;;;14.47;9.08;;;;;;;13.99;50.13;100682.38;1694275;83;21029;-73
2021/10/03 07:24:44;;;;;;;18.55;9.25;;;;;;;14.17;48.79;100675.31;1682358;84;21069;-73
2021/10/03 07:27:10;;;;;;;12.65;8.15;;;;;;;14.41;50.56;100680.57;1664675;84;21123;-75
2021/10/03 07:29:38;;;;;;;15.85;8.43;;;;;;;14.81;48.64;100684.23;1709768;82;21006;-74
2021/10/03 07:32:09;;;;;;;17.37;8.35;;;;;;;15.10;46.60;100685.09;1727754;81;21062;-79
2021/10/03 07:34:37;;;;;;;16.25;8.13;;;;;;;15.20;46.56;100686.76;1737613;81;20973;-83
2021/10/03 07:37:04;;;;;;;11.28;7.28;;;;;;;15.33;45.75;100678.92;1716685;80;21444;-77
2021/10/03 07:39:31;;;;;;;15.15;7.50;;;;;;;15.44;45.97;100682.22;1720067;82;21446;-79
2021/10/03 07:41:58;;;;;;;14.83;7.53;;;;;;;15.44;42.88;100683.59;1702829;81;21571;-81
2021/10/03 07:44:25;;;;;;;20.62;7.62;;;;;;;15.44;43.58;100681.65;1727020;80;21029;-82
2021/10/03 07:46:52;;;;;;;18.80;7.12;;;;;;;15.71;43.46;100675.62;1741835;82;21552;-75
2021/10/03 07:49:18;;;;;;;12.63;7.08;;;;;;;15.96;42.26;100676.80;1733916;81;21054;-74
2021/10/03 07:51:47;;;;;;;15.08;7.40;;;;;;;16.05;41.67;100670.70;1727209;81;20981;-76
2021/10/03 07:54:13;;;;;;;9.88;7.25;;;;;;;16.08;41.24;100668.09;1693989;82;20945;-70
2021/10/03 07:56:40;;;;;;;12.58;7.03;;;;;;;16.09;41.87;100671.68;1704578;83;20957;-78
2021/10/03 07:59:07;;;;;;;12.65;6.97;;;;;;;16.22;42.95;100672.06;1738125;80;21003;-73
2021/10/03 08:01:34;;;;;;;14.80;6.72;;;;;;;16.53;42.19;100670.50;1754476;80;21080;-74
2021/10/03 08:04:02;;;;;;;16.73;6.75;;;;;;;16.81;41.01;100662.62;1753653;79;21785;-83
2021/10/03 08:06:29;;;;;;;8.70;5.83;;;;;;;17.02;39.69;100664.92;1731685;80;21509;-80
2021/10/03 08:08:56;;;;;;;9.63;5.85;;;;;;;17.06;38.26;100667.27;1751124;79;20957;-78
2021/10/03 08:11:22;;;;;;;11.78;5.97;;;;;;;17.01;39.48;100666.64;1756644;80;20935;-74
2021/10/03 08:13:50;;;;;;;13.03;6.42;;;;;;;17.14;40.28;100673.36;1755425;80;21009;-72
2021/10/03 08:16:18;;;;;;;12.88;6.97;;;;;;;17.38;38.47;100666.38;1753232;80;21684;-74
2021/10/03 08:18:46;;;;;;;9.98;6.67;;;;;;;17.39;38.89;100666.62;1732420;81;21028;-74
2021/10/03 08:21:14;;;;;;;10.43;6.20;;;;;;;17.41;37.27;100671.26;1718684;82;21083;-85
2021/10/03 08:23:41;;;;;;;10.00;6.08;;;;;;;17.44;36.78;100668.63;1715607;81;21001;-83
2021/10/03 08:26:08;;;;;;;10.80;5.83;;;;;;;17.47;37.32;100669.92;1712029;79;20942;-75
2021/10/03 08:28:35;;;;;;;12.28;5.92;;;;;;;17.64;38.76;100674.00;1727203;81;21501;-81
2021/10/03 08:31:01;;;;;;;10.25;5.17;;;;;;;17.83;35.51;100670.81;1680261;83;20979;-73
2021/10/03 08:33:28;;;;;;;10.78;5.90;;;;;;;17.78;35.40;100674.59;1684113;84;20939;-73
2021/10/03 08:35:56;;;;;;;8.28;5.40;;;;;;;17.68;36.07;100672.78;1641121;85;20928;-73
2021/10/03 08:38:22;;;;;;;10.23;4.28;;;;;;;17.65;34.54;100678.43;1674763;84;21063;-72
2021/10/03 08:40:50;;;;;;;9.80;5.25;;;;;;;17.61;33.58;100678.02;1671507;85;20857;-75
2021/10/03 08:43:18;;;;;;;63.28;11.75;;;;;;;17.61;33.08;100676.05;1705684;82;20960;-70
2021/10/03 08:45:45;;;;;;;16.15;5.80;;;;;;;17.73;35.12;100674.79;1671413;85;21718;-71
2021/10/03 08:48:14;;;;;;;19.60;5.80;;;;;;;18.00;34.11;100676.22;1699205;83;21000;-71
2021/10/03 08:50:43;;;;;;;6.78;4.42;;;;;;;18.21;31.86;100674.83;1681163;83;21064;-74
2021/10/03 08:53:11;;;;;;;14.35;5.25;;;;;;;18.25;32.74;100670.22;1673195;85;21125;-84
2021/10/03 08:55:40;;;;;;;16.45;5.25;;;;;;;18.36;32.87;100668.66;1666253;84;21528;-84
2021/10/03 08:58:07;;;;;;;7.03;4.50;;;;;;;18.44;33.14;100657.22;1680662;85;21110;-74
2021/10/03 09:00:35;;;;;;;9.60;4.75;;;;;;;18.49;32.34;100660.56;1665766;85;21034;-78
2021/10/03 09:03:08;;;;;;;13.08;5.25;;;;;;;18.52;32.14;100665.20;1649710;84;21065;-74
2021/10/03 09:05:41;;;;;;;11.57;5.15;;;;;;;18.63;33.27;100653.92;1677273;84;21139;-71
2021/10/03 09:08:12;;;;;;;12.90;4.78;;;;;;;18.95;32.04;100660.04;1679447;83;20968;-75
2021/10/03 09:10:55;;;;;;;6.37;4.17;;;;;;;19.23;31.50;100665.73;1679328;84;21078;-75
2021/10/03 09:13:26;;;;;;;6.47;4.25;;;;;;;19.33;30.28;100668.06;1716449;82;21071;-73
2021/10/03 09:16:24;;;;;;;6.70;4.37;;;;;;;19.37;30.75;100668.99;1706352;83;21051;-78
2021/10/03 09:18:53;;;;;;;8.10;4.90;;;;;;;19.47;30.24;100670.50;1678158;85;21174;-77
2021/10/03 09:21:34;;;;;;;10.58;5.30;;;;;;;19.58;30.52;100664.73;1646941;85;21574;-79
2021/10/03 09:24:17;;;;;;;9.58;5.12;;;;;;;19.86;28.11;100668.97;1672417;83;21001;-76
2021/10/03 09:27:03;;;;;;;8.53;3.90;;;;;;;19.86;28.53;100667.58;1689310;83;20973;-76
2021/10/03 09:29:33;;;;;;;6.90;3.90;;;;;;;19.71;28.36;100671.89;1707912;83;20902;-81
2021/10/03 09:32:18;;;;;;;8.13;4.60;;;;;;;19.70;29.12;100663.88;1710519;84;21116;-82
2021/10/03 09:34:49;;;;;;;25.57;14.60;;;;;;;19.90;28.14;100665.71;1650860;84;20995;-78
2021/10/03 09:37:26;;;;;;;7.08;4.00;;;;;;;20.08;28.43;100669.05;1649340;86;21530;-85
2021/10/03 09:40:06;;;;;;;6.58;3.77;;;;;;;20.00;28.23;100661.05;1699917;83;21013;-81
2021/10/03 09:42:35;;;;;;;11.08;4.78;;;;;;;19.95;28.76;100661.88;1715905;82;20983;-80
2021/10/03 09:45:14;;;;;;;9.48;3.98;;;;;;;20.10;28.80;100659.16;1702565;83;21175;-84
2021/10/03 09:47:44;;;;;;;4.20;2.80;;;;;;;20.22;28.51;100654.10;1689097;83;21080;-79
2021/10/03 09:50:15;;;;;;;4.50;3.27;;;;;;;20.19;26.89;100641.48;1720686;81;20932;-78
2021/10/03 09:52:42;;;;;;;8.03;4.20;;;;;;;20.09;28.64;100648.36;1730175;81;20978;-76
2021/10/03 09:55:13;;;;;;;9.38;5.78;;;;;;;20.20;27.88;100641.71;1730515;82;21448;-79
2021/10/03 09:57:42;;;;;;;8.17;3.90;;;;;;;20.33;28.39;100641.28;1730185;81;21149;-81
2021/10/03 10:00:11;;;;;;;7.20;3.15;;;;;;;20.34;26.55;100640.70;1733771;82;21651;-79
2021/10/03 10:02:40;;;;;;;6.75;2.98;;;;;;;20.24;27.40;100631.45;1744593;82;21023;-78
2021/10/03 10:05:08;;;;;;;7.33;3.30;;;;;;;20.38;26.81;100636.87;1737354;81;20959;-81
2021/10/03 10:07:35;;;;;;;5.65;3.20;;;;;;;20.41;28.82;100627.80;1745564;80;21493;-79
2021/10/03 10:10:07;;;;;;;7.28;4.00;;;;;;;20.47;28.09;100625.56;1752202;80;21511;-78
2021/10/03 10:12:37;;;;;;;6.65;3.87;;;;;;;20.46;28.75;100617.55;1747229;80;21094;-76
2021/10/03 10:15:08;;;;;;;8.45;3.75;;;;;;;20.60;28.82;100617.37;1754752;80;21057;-78
2021/10/03 10:17:39;;;;;;;5.53;3.02;;;;;;;20.68;29.19;100610.81;1752785;80;20963;-81
2021/10/03 10:20:30;;;;;;;4.83;3.03;;;;;;;20.80;27.61;100612.69;1748935;80;20992;-80
2021/10/03 10:23:07;;;;;;;6.40;3.30;;;;;;;20.77;27.36;100612.03;1762759;80;21450;-78
2021/10/03 10:25:47;;;;;;;5.45;3.40;;;;;;;20.78;27.14;100609.47;1735204;80;20999;-80
2021/10/03 10:28:29;;;;;;;7.25;3.08;;;;;;;20.60;27.89;100611.78;1734655;80;21081;-79
2021/10/03 10:31:11;;;;;;;;;;;;;;;20.52;27.56;100604.98;1762517;80;20987;-81
2021/10/03 10:34:01;;;;;;;5.12;3.20;;;;;;;20.57;28.43;100606.11;1756277;80;20120;-79
2021/10/03 10:36:34;;;;;;;9.68;3.55;;;;;;;20.68;28.54;100606.63;1752507;80;20904;-79
2021/10/03 10:39:14;;;;;;;7.72;3.62;;;;;;;20.66;28.44;100596.41;1756482;80;21412;-79
2021/10/03 10:41:45;;;;;;;5.70;3.20;;;;;;;20.62;28.08;100596.09;1763508;80;20971;-79
2021/10/03 10:44:33;;;;;;;11.10;3.22;;;;;;;20.61;27.49;100586.09;1751365;80;21009;-80
2021/10/03 10:47:19;;;;;;;5.20;2.92;;;;;;;20.66;28.11;100586.64;1747631;80;20947;-78
2021/10/03 10:49:53;;;;;;;5.10;3.08;;;;;;;20.76;29.67;100595.06;1757480;80;21222;-79
2021/10/03 10:52:25;;;;;;;8.58;3.40;;;;;;;20.75;27.99;100589.27;1747147;80;21054;-79
2021/10/03 10:55:09;;;;;;;3.92;2.75;;;;;;;20.82;28.43;100583.02;1751383;80;20962;-78
2021/10/03 10:58:02;;;;;;;6.42;3.70;;;;;;;20.98;28.93;100583.25;1743427;80;20994;-79
2021/10/03 11:00:31;;;;;;;6.10;2.90;;;;;;;21.03;28.79;100587.75;1751685;80;21101;-79
2021/10/03 11:02:59;;;;;;;9.28;3.92;;;;;;;20.88;26.70;100590.77;1756323;80;21133;-79
2021/10/03 11:05:40;;;;;;;5.95;3.30;;;;;;;20.86;27.65;100581.95;1765228;80;21095;-79
2021/10/03 11:08:20;;;;;;;9.30;2.92;;;;;;;21.01;26.90;100584.52;1755434;80;20927;-79
2021/10/03 11:11:09;;;;;;;7.58;3.42;;;;;;;21.06;27.12;100581.45;1747813;80;20861;-80
2021/10/03 11:13:47;;;;;;;8.33;2.85;;;;;;;21.01;26.44;100583.12;1745881;80;21476;-80
2021/10/03 11:16:32;;;;;;;5.85;3.08;;;;;;;20.92;26.77;100586.67;1751521;81;21117;-78
2021/10/03 11:19:04;;;;;;;7.78;3.12;;;;;;;20.78;27.29;100570.99;1753161;80;20911;-80
2021/10/03 11:21:38;;;;;;;;;;;;;;;20.74;28.15;100570.90;1752872;80;20947;-78
2021/10/03 11:24:07;;;;;;;5.50;3.17;;;;;;;20.95;28.37;100570.02;1749105;80;20151;-78
2021/10/03 11:26:54;;;;;;;7.75;2.90;;;;;;;20.89;26.23;100572.85;1755606;80;20979;-79
2021/10/03 11:29:26;;;;;;;6.17;3.20;;;;;;;20.59;27.29;100568.91;1763161;80;21073;-80
2021/10/03 11:31:56;;;;;;;7.20;3.05;;;;;;;20.51;27.38;100565.70;1765435;80;20979;-80
2021/10/03 11:34:37;;;;;;;6.75;3.35;;;;;;;20.62;28.77;100562.61;1746991;80;21130;-80
2021/10/03 11:37:26;;;;;;;6.70;3.65;;;;;;;20.56;27.18;100561.25;1741788;80;21085;-80
2021/10/03 11:40:08;;;;;;;7.42;3.62;;;;;;;20.50;27.76;100562.69;1761027;80;20984;-79
2021/10/03 11:42:55;;;;;;;6.05;4.08;;;;;;;20.64;29.09;100553.30;1766548;80;27408;-79